Los Angeles International Airport

KLAX | LAX

Los Angeles , California , United States

Thursday, November 21st, 2019 | 23:45

Weather

KLAX 220653Z VRB03KT 10SM FEW026 SCT180 15/10 A3007 RMK AO2 SLP180 T01500100

Charts

103 Available

Gates

308 Available

Runways

4 Available

Events

No events for this airport


New event